createdAt,value
2023-03-02T17:34:14.292Z,5.52
2023-03-02T17:36:41.560Z,5.56
2023-03-02T17:39:08.081Z,5.64
2023-03-02T17:41:35.731Z,5.56
2023-03-02T17:44:03.107Z,5.48
2023-03-02T17:46:32.345Z,5.44
2023-03-02T17:49:00.787Z,5.45
2023-03-02T17:51:28.919Z,5.49
2023-03-02T17:53:56.011Z,5.44
2023-03-02T17:56:25.425Z,5.37
2023-03-02T17:59:01.047Z,5.80
2023-03-02T18:01:29.356Z,5.92
2023-03-02T18:03:56.003Z,5.84
2023-03-02T18:06:22.928Z,5.73
2023-03-02T18:08:51.251Z,5.60
2023-03-02T18:11:21.012Z,5.53
2023-03-02T18:13:47.661Z,5.51
2023-03-02T18:16:14.531Z,5.53
2023-03-02T18:18:41.131Z,5.48
2023-03-02T18:21:07.728Z,5.52
2023-03-02T18:23:34.519Z,5.50
2023-03-02T18:26:01.118Z,5.54
2023-03-02T18:28:29.097Z,5.56
2023-03-02T18:30:55.723Z,5.48
2023-03-02T18:33:22.296Z,5.48
2023-03-02T18:35:48.850Z,5.46
2023-03-02T18:38:15.357Z,5.50
2023-03-02T18:40:41.900Z,5.51
2023-03-02T18:43:08.516Z,5.51
2023-03-02T18:45:35.383Z,5.52
2023-03-02T18:48:02.342Z,5.54
2023-03-02T18:50:29.815Z,5.43
2023-03-02T18:52:56.396Z,5.52
2023-03-02T18:55:24.636Z,5.50
2023-03-02T18:57:53.808Z,5.44
2023-03-02T19:00:26.621Z,5.44
2023-03-02T19:02:54.228Z,5.48
2023-03-02T19:05:20.889Z,5.87
2023-03-02T19:07:47.846Z,6.22
2023-03-02T19:10:14.941Z,5.98
2023-03-02T19:12:41.870Z,5.70
2023-03-02T19:15:10.493Z,5.57
2023-03-02T19:17:39.675Z,5.61
2023-03-02T19:20:07.601Z,5.51
2023-03-02T19:22:34.620Z,5.48
2023-03-02T19:25:01.131Z,5.40
2023-03-02T19:27:27.844Z,5.39
2023-03-02T19:29:54.579Z,5.39
2023-03-02T19:32:21.196Z,5.37
2023-03-02T19:34:48.676Z,5.38
2023-03-02T19:37:15.654Z,5.42
2023-03-02T19:39:43.337Z,5.40
2023-03-02T19:42:10.240Z,5.41
2023-03-02T19:44:37.155Z,5.37
2023-03-02T19:47:04.509Z,5.37
2023-03-02T19:49:31.039Z,5.40
2023-03-02T19:51:58.998Z,5.41
2023-03-02T19:54:25.803Z,5.27
2023-03-02T19:56:54.870Z,5.30
2023-03-02T19:59:22.923Z,5.28
2023-03-02T20:01:51.266Z,5.23
2023-03-02T20:04:18.816Z,5.27
2023-03-02T20:06:45.445Z,5.23
2023-03-02T20:09:14.490Z,5.23
2023-03-02T20:11:41.065Z,5.22
2023-03-02T20:14:07.634Z,5.22
2023-03-02T20:16:35.615Z,5.23
2023-03-02T20:19:03.353Z,5.21
2023-03-02T20:21:31.222Z,5.12
2023-03-02T20:23:57.753Z,5.11
2023-03-02T20:26:25.696Z,5.07
2023-03-02T20:28:55.466Z,5.03
2023-03-02T20:31:24.547Z,4.99
2023-03-02T20:33:53.995Z,4.94
2023-03-02T20:36:29.521Z,4.98
2023-03-02T20:39:00.292Z,4.96
2023-03-02T20:41:27.173Z,4.77
2023-03-02T20:43:53.777Z,4.80
2023-03-02T20:46:24.785Z,4.86
2023-03-02T20:48:52.116Z,4.91
2023-03-02T20:51:19.714Z,4.92
2023-03-02T20:53:47.043Z,4.88
2023-03-02T20:56:18.634Z,4.84
2023-03-02T20:58:47.061Z,4.80
2023-03-02T21:01:15.749Z,4.84
2023-03-02T21:03:42.492Z,4.84
2023-03-02T21:06:09.932Z,4.76
2023-03-02T21:08:39.609Z,4.75
2023-03-02T21:11:15.629Z,4.75
2023-03-02T21:13:45.787Z,4.80
2023-03-02T21:16:20.572Z,4.83
2023-03-02T21:18:47.383Z,4.88
2023-03-02T21:21:13.891Z,4.86
2023-03-02T21:23:41.705Z,4.82
2023-03-02T21:26:10.582Z,4.75
2023-03-02T21:28:37.408Z,4.74
2023-03-02T21:31:04.103Z,4.79
2023-03-02T21:33:30.690Z,4.77
2023-03-02T21:35:57.913Z,4.74
2023-03-02T21:38:24.497Z,4.74
2023-03-02T21:40:50.958Z,4.73
2023-03-02T21:43:18.276Z,4.75
2023-03-02T21:45:44.737Z,4.78
2023-03-02T21:48:13.850Z,4.80
2023-03-02T21:50:40.928Z,4.77
2023-03-02T21:53:08.490Z,4.78
2023-03-02T21:55:35.455Z,4.69
2023-03-02T21:58:02.438Z,4.68
2023-03-02T22:00:35.800Z,4.64
2023-03-02T22:03:03.440Z,4.63
2023-03-02T22:05:30.722Z,4.56
2023-03-02T22:07:57.434Z,4.60
2023-03-02T22:10:31.393Z,4.56
2023-03-02T22:13:14.528Z,4.55
2023-03-02T22:15:41.456Z,4.56
2023-03-02T22:18:16.897Z,4.55
2023-03-02T22:20:45.557Z,4.55
2023-03-02T22:23:14.211Z,4.52
2023-03-02T22:25:43.397Z,4.52
2023-03-02T22:28:28.328Z,4.46
2023-03-02T22:30:58.892Z,4.41
2023-03-02T22:33:29.535Z,4.38
2023-03-02T22:36:13.684Z,4.34
2023-03-02T22:38:40.137Z,4.25
2023-03-02T22:41:12.981Z,4.15
2023-03-02T22:43:39.597Z,4.07
2023-03-02T22:46:21.818Z,4.07
2023-03-02T22:48:50.270Z,4.10
2023-03-02T22:51:20.594Z,4.22
2023-03-02T22:53:52.856Z,4.33
2023-03-02T22:56:37.242Z,4.37
2023-03-02T22:59:12.229Z,4.45
2023-03-02T23:01:42.120Z,4.35
2023-03-02T23:04:08.640Z,4.38
2023-03-02T23:06:45.184Z,4.37
2023-03-02T23:09:14.543Z,4.36
2023-03-02T23:11:41.821Z,4.35
2023-03-02T23:14:29.337Z,4.41
2023-03-02T23:17:08.300Z,4.34
2023-03-02T23:19:34.767Z,4.27
2023-03-02T23:22:01.231Z,4.36
2023-03-02T23:24:27.804Z,4.26
2023-03-02T23:26:54.442Z,4.24
2023-03-02T23:29:21.580Z,4.29
2023-03-02T23:31:49.056Z,4.28
2023-03-02T23:34:16.459Z,4.33
2023-03-02T23:36:43.119Z,4.27
2023-03-02T23:39:10.421Z,4.29
2023-03-02T23:41:38.546Z,4.30
2023-03-02T23:44:06.233Z,4.25
2023-03-02T23:46:33.446Z,4.26
2023-03-02T23:49:00.620Z,4.29
2023-03-02T23:51:27.216Z,4.26
2023-03-02T23:53:54.165Z,4.26
2023-03-02T23:56:21.403Z,4.21
2023-03-02T23:58:48.119Z,4.16
